createdAt,value
2023-04-08T00:03:07.398Z,79.07
2023-04-08T00:08:11.684Z,97.87
2023-04-08T00:13:14.901Z,73.53
2023-04-08T00:18:18.408Z,62.22
2023-04-08T00:23:22.603Z,57.63
2023-04-08T00:28:28.449Z,75.87
2023-04-08T00:33:31.515Z,96.68
2023-04-08T00:38:35.788Z,96.25
2023-04-08T00:43:38.677Z,100.10
2023-04-08T00:48:41.627Z,89.85
2023-04-08T00:53:45.863Z,75.35
2023-04-08T00:58:49.004Z,43.57
2023-04-08T01:03:57.783Z,61.22
2023-04-08T01:09:02.656Z,57.85
2023-04-08T01:14:07.413Z,45.70
2023-04-08T01:19:11.780Z,36.65
2023-04-08T01:24:20.397Z,27.05
2023-04-08T01:29:25.709Z,22.83
2023-04-08T01:34:29.622Z,14.93
2023-04-08T01:39:32.830Z,14.85
2023-04-08T01:44:37.369Z,13.25
2023-04-08T01:49:40.678Z,16.30
2023-04-08T01:54:43.504Z,14.00
2023-04-08T01:59:49.606Z,13.63
2023-04-08T02:04:52.654Z,12.95
2023-04-08T02:09:55.726Z,10.20
2023-04-08T02:15:00.673Z,9.43
2023-04-08T02:20:07.245Z,12.60
2023-04-08T02:25:14.921Z,11.15
2023-04-08T02:30:19.355Z,11.73
2023-04-08T02:35:24.508Z,11.73
2023-04-08T02:40:28.488Z,13.83
2023-04-08T02:45:36.714Z,15.75
2023-04-08T02:50:39.948Z,14.45
2023-04-08T02:55:42.927Z,15.25
2023-04-08T03:00:47.116Z,14.68
2023-04-08T03:05:49.926Z,20.02
2023-04-08T03:10:52.731Z,15.23
2023-04-08T03:15:57.050Z,18.38
2023-04-08T03:21:00.129Z,18.77
2023-04-08T03:26:03.005Z,15.77
2023-04-08T03:31:07.511Z,16.63
2023-04-08T03:36:10.340Z,18.17
2023-04-08T03:41:13.195Z,18.27
2023-04-08T03:46:17.391Z,20.13
2023-04-08T03:51:20.328Z,23.03
2023-04-08T03:56:23.147Z,21.77
2023-04-08T04:01:27.458Z,21.73
2023-04-08T04:06:30.281Z,20.70
2023-04-08T04:11:35.530Z,21.73
2023-04-08T04:16:39.703Z,19.60
2023-04-08T04:21:43.260Z,21.23
2023-04-08T04:26:46.109Z,19.52
2023-04-08T04:31:50.360Z,22.23
2023-04-08T04:36:53.320Z,21.10
2023-04-08T04:41:56.319Z,22.43
2023-04-08T04:47:00.643Z,18.35
2023-04-08T04:52:03.531Z,17.48
2023-04-08T04:57:06.439Z,16.45
2023-04-08T05:02:10.794Z,16.80
2023-04-08T05:07:14.131Z,21.45
2023-04-08T05:12:17.495Z,19.45
2023-04-08T05:17:21.795Z,19.40
2023-04-08T05:22:24.704Z,17.80
2023-04-08T05:27:27.640Z,20.92
2023-04-08T05:32:32.313Z,15.75
2023-04-08T05:37:35.095Z,18.70
2023-04-08T05:42:37.934Z,19.55
2023-04-08T05:47:42.148Z,15.47
2023-04-08T05:52:45.819Z,16.92
2023-04-08T05:57:48.726Z,15.93
2023-04-08T06:02:53.228Z,17.30
2023-04-08T06:07:56.370Z,16.93
2023-04-08T06:12:59.280Z,14.80
2023-04-08T06:18:03.516Z,17.50
2023-04-08T06:23:06.737Z,14.73
2023-04-08T06:28:09.612Z,14.23
2023-04-08T06:33:13.843Z,12.48
2023-04-08T06:38:16.758Z,13.27
2023-04-08T06:43:19.751Z,13.67
2023-04-08T06:48:28.383Z,14.02
2023-04-08T06:53:32.747Z,13.63
2023-04-08T06:58:35.713Z,12.37
2023-04-08T07:03:39.986Z,16.35
2023-04-08T07:08:42.970Z,12.35
2023-04-08T07:13:45.961Z,12.43
2023-04-08T07:18:51.911Z,12.03
2023-04-08T07:23:54.987Z,10.32
2023-04-08T07:28:57.840Z,12.50
2023-04-08T07:34:01.983Z,11.40
2023-04-08T07:39:05.028Z,14.03
2023-04-08T07:44:32.640Z,13.90
2023-04-08T07:49:36.871Z,11.10
2023-04-08T07:54:39.691Z,12.27
2023-04-08T07:59:42.521Z,13.68
2023-04-08T08:04:46.820Z,13.65
2023-04-08T08:09:49.686Z,14.32
2023-04-08T08:14:54.832Z,15.20
2023-04-08T08:20:03.633Z,11.33
2023-04-08T08:25:07.684Z,12.88
2023-04-08T08:30:11.205Z,11.43
2023-04-08T08:35:15.653Z,14.37
2023-04-08T08:40:18.712Z,13.27
2023-04-08T08:45:21.647Z,12.13
2023-04-08T08:50:25.916Z,14.00
2023-04-08T08:55:56.831Z,15.25
2023-04-08T09:00:54.869Z,14.63
2023-04-08T09:06:00.499Z,13.10
2023-04-08T09:11:14.246Z,13.55
2023-04-08T09:16:18.646Z,12.82
2023-04-08T09:21:24.867Z,15.90
2023-04-08T09:26:28.224Z,14.35
2023-04-08T09:31:32.334Z,13.32
2023-04-08T09:36:36.657Z,13.10
2023-04-08T09:41:40.509Z,12.38
2023-04-08T09:46:52.746Z,14.65
2023-04-08T09:52:03.021Z,13.17
2023-04-08T09:57:09.945Z,13.80
2023-04-08T10:02:13.130Z,14.25
2023-04-08T10:07:17.237Z,16.52
2023-04-08T10:12:20.477Z,15.07
2023-04-08T10:17:27.298Z,19.07
2023-04-08T10:22:50.169Z,17.23
2023-04-08T10:27:53.130Z,16.63
2023-04-08T10:32:57.204Z,14.77
2023-04-08T10:38:02.133Z,13.55
2023-04-08T10:43:05.445Z,15.75
2023-04-08T10:48:16.451Z,15.10
2023-04-08T10:53:25.353Z,41.50
2023-04-08T10:58:28.628Z,12.73
2023-04-08T11:03:33.893Z,13.57
2023-04-08T11:08:38.555Z,14.98
2023-04-08T11:13:51.901Z,12.60
2023-04-08T11:18:55.592Z,13.80
2023-04-08T11:23:59.873Z,15.13
2023-04-08T11:29:03.384Z,12.25
2023-04-08T11:34:06.235Z,13.03
2023-04-08T11:39:12.055Z,14.65
2023-04-08T11:44:15.327Z,13.03
2023-04-08T11:49:18.233Z,12.23
2023-04-08T11:54:29.481Z,15.97
2023-04-08T11:59:32.422Z,18.02
2023-04-08T12:04:35.949Z,17.58
2023-04-08T12:09:40.319Z,16.75
2023-04-08T12:14:43.297Z,21.60
2023-04-08T12:19:46.220Z,19.48
2023-04-08T12:24:50.587Z,19.52
2023-04-08T12:29:53.576Z,20.33
2023-04-08T12:34:56.992Z,19.15
2023-04-08T12:40:01.375Z,17.90
2023-04-08T12:45:04.556Z,18.38
2023-04-08T12:50:09.891Z,21.35
2023-04-08T12:55:14.126Z,17.23
2023-04-08T13:00:17.002Z,16.98
2023-04-08T13:05:29.461Z,16.08
2023-04-08T13:10:37.396Z,19.42
2023-04-08T13:15:40.222Z,13.50
2023-04-08T13:20:43.079Z,18.40
2023-04-08T13:25:47.354Z,19.38
2023-04-08T13:30:50.437Z,17.58
2023-04-08T13:35:53.358Z,21.30
2023-04-08T13:40:57.613Z,21.05
2023-04-08T13:46:00.600Z,20.05
2023-04-08T13:51:03.611Z,20.80
2023-04-08T13:56:08.810Z,22.70
2023-04-08T14:01:11.779Z,23.53
2023-04-08T14:06:14.873Z,24.73
2023-04-08T14:11:19.214Z,19.33
2023-04-08T14:16:22.106Z,17.02
2023-04-08T14:21:25.098Z,19.90
2023-04-08T14:26:29.293Z,17.55
2023-04-08T14:31:32.732Z,19.33
2023-04-08T14:36:35.727Z,14.77
2023-04-08T14:41:40.726Z,17.40
2023-04-08T14:46:43.922Z,16.77
2023-04-08T14:51:46.766Z,16.73
2023-04-08T14:56:50.938Z,18.25
2023-04-08T15:01:53.868Z,13.32
2023-04-08T15:06:56.835Z,12.82
2023-04-08T15:12:01.381Z,14.05
2023-04-08T15:17:04.249Z,15.27
2023-04-08T15:22:07.249Z,12.60
2023-04-08T15:27:11.419Z,16.20
2023-04-08T15:32:14.244Z,10.32
2023-04-08T15:37:17.209Z,14.27
2023-04-08T15:42:21.691Z,11.82
2023-04-08T15:47:24.572Z,9.65
2023-04-08T15:52:27.800Z,13.60
2023-04-08T15:57:32.561Z,12.57
2023-04-08T16:02:35.848Z,14.93
2023-04-08T16:07:38.985Z,13.43
2023-04-08T16:12:43.275Z,11.93
2023-04-08T16:17:51.562Z,14.43
2023-04-08T16:22:54.568Z,11.57
2023-04-08T16:27:58.869Z,12.33
2023-04-08T16:33:01.726Z,13.70
2023-04-08T16:38:04.653Z,15.25
2023-04-08T16:43:08.862Z,14.68
2023-04-08T16:48:12.554Z,13.60
2023-04-08T16:53:15.598Z,13.25
2023-04-08T16:58:19.911Z,12.80
2023-04-08T17:03:22.994Z,12.77
2023-04-08T17:08:26.347Z,15.53
2023-04-08T17:13:30.868Z,13.98
2023-04-08T17:18:33.786Z,14.97
2023-04-08T17:23:37.265Z,15.85
2023-04-08T17:28:41.696Z,14.00
2023-04-08T17:33:44.475Z,13.33
2023-04-08T17:38:49.338Z,15.05
2023-04-08T17:43:53.594Z,16.93
2023-04-08T17:48:56.450Z,13.35
2023-04-08T17:53:59.385Z,15.25
2023-04-08T17:59:04.140Z,16.90
2023-04-08T18:04:08.583Z,17.40
2023-04-08T18:09:11.567Z,17.83
2023-04-08T18:14:16.594Z,20.17
2023-04-08T18:19:19.730Z,19.87
2023-04-08T18:24:22.743Z,22.00
2023-04-08T18:29:27.032Z,20.13
2023-04-08T18:34:31.951Z,19.83
2023-04-08T18:39:34.868Z,20.58
2023-04-08T18:44:39.086Z,22.35
2023-04-08T18:49:41.870Z,24.35
2023-04-08T18:54:44.657Z,22.88
2023-04-08T18:59:49.304Z,29.23
2023-04-08T19:04:52.197Z,23.70
2023-04-08T19:09:57.456Z,21.40
2023-04-08T19:15:03.952Z,30.57
2023-04-08T19:20:11.009Z,30.75
2023-04-08T19:25:13.838Z,28.23
2023-04-08T19:30:18.128Z,30.53
2023-04-08T19:35:20.952Z,25.73
2023-04-08T19:40:23.910Z,24.40
2023-04-08T19:45:28.099Z,26.83
2023-04-08T19:50:30.931Z,24.75
2023-04-08T19:55:35.587Z,25.85
2023-04-08T20:00:40.100Z,25.27
2023-04-08T20:05:43.299Z,24.60
2023-04-08T20:10:46.442Z,24.70
2023-04-08T20:15:51.998Z,27.35
2023-04-08T20:20:56.683Z,27.00
2023-04-08T20:25:59.591Z,25.48
2023-04-08T20:31:04.274Z,24.75
2023-04-08T20:36:07.111Z,25.90
2023-04-08T20:41:09.979Z,28.38
2023-04-08T20:46:14.339Z,23.70
2023-04-08T20:51:17.396Z,21.90
2023-04-08T20:56:21.101Z,23.50
2023-04-08T21:01:26.006Z,25.90
2023-04-08T21:06:28.948Z,22.73
2023-04-08T21:11:31.765Z,25.92
2023-04-08T21:16:36.070Z,24.52
2023-04-08T21:21:38.889Z,27.47
2023-04-08T21:26:41.735Z,29.93
2023-04-08T21:31:45.948Z,32.07
2023-04-08T21:36:48.984Z,38.15
2023-04-08T21:41:52.225Z,29.17
2023-04-08T21:46:56.450Z,33.20
2023-04-08T21:51:59.364Z,35.05
2023-04-08T21:57:02.495Z,35.22
2023-04-08T22:02:07.435Z,35.20
2023-04-08T22:07:11.655Z,40.47
2023-04-08T22:12:14.400Z,43.95
2023-04-08T22:17:18.790Z,38.55
2023-04-08T22:22:21.603Z,45.77
2023-04-08T22:27:24.392Z,41.88
2023-04-08T22:32:28.517Z,39.78
2023-04-08T22:37:32.375Z,44.07
2023-04-08T22:42:35.638Z,38.30
2023-04-08T22:47:39.944Z,42.13
2023-04-08T22:52:42.746Z,38.27
2023-04-08T22:57:45.587Z,37.37
2023-04-08T23:02:50.070Z,40.20
2023-04-08T23:07:53.028Z,38.10
2023-04-08T23:12:56.226Z,34.70
2023-04-08T23:18:00.406Z,41.95
2023-04-08T23:23:03.648Z,38.15
2023-04-08T23:28:06.570Z,39.40
2023-04-08T23:33:10.820Z,35.30
2023-04-08T23:38:13.648Z,40.10
2023-04-08T23:43:16.461Z,38.65
2023-04-08T23:48:20.701Z,44.63
2023-04-08T23:53:23.658Z,37.00
2023-04-08T23:58:26.547Z,45.23
